Irvine, United Kingdom
Current Conditions -  °F | °C
As of 8:20 AM on Friday 31 Oct 2014 (Local Time) from EGPK Reporting Station
Broken Clouds Broken Clouds  
Wind Chill: 61°   Ceiling: 2100
Heat Index: 61°   Visibility: 6mi
Dew Point: 57°   Wind: 17mph
Humidity: 88%   Direction: 180°S
Pressure: 29.77"   Gusts: NA
Location:  55.62°N, 4.66°W
Report Text: EGPK 310820Z 18015KT 9999 FEW011 BKN021 16/14 Q1008
Loading
Personal Weather Stations






























Interactive Weather Map
Tropical Storm Tracking
New forecast layout! Learn more

10-Day Weather Forecast

Advertisements
Track Severe Weather on mobile